createdAt,value
2018-07-19T00:00:53.061Z,0.00
2018-07-19T00:01:52.954Z,0.00
2018-07-19T00:02:52.969Z,0.00
2018-07-19T00:03:53.007Z,0.00
2018-07-19T00:04:53.021Z,0.00
2018-07-19T00:05:53.116Z,0.00
2018-07-19T00:06:53.052Z,0.00
2018-07-19T00:07:53.063Z,0.00
2018-07-19T00:08:53.067Z,0.00
2018-07-19T00:09:53.103Z,0.00
2018-07-19T00:10:53.192Z,0.00
2018-07-19T00:11:53.126Z,0.00
2018-07-19T00:12:53.139Z,0.00
2018-07-19T00:13:53.157Z,0.00
2018-07-19T00:14:53.173Z,0.00
2018-07-19T00:15:53.286Z,0.00
2018-07-19T00:16:53.211Z,0.00
2018-07-19T00:17:53.224Z,0.00
2018-07-19T00:18:53.258Z,0.00
2018-07-19T00:19:53.246Z,0.00
2018-07-19T00:20:53.367Z,0.00
2018-07-19T00:21:53.280Z,0.00
2018-07-19T00:22:53.296Z,0.00
2018-07-19T00:23:53.289Z,0.00
2018-07-19T00:24:53.325Z,0.00
2018-07-19T00:25:53.440Z,0.00
2018-07-19T00:26:53.355Z,0.00
2018-07-19T00:27:53.352Z,0.00
2018-07-19T00:28:53.382Z,0.00
2018-07-19T00:29:53.403Z,0.00
2018-07-19T00:30:53.520Z,0.00
2018-07-19T00:31:53.426Z,0.00
2018-07-19T00:32:53.450Z,0.00
2018-07-19T00:33:53.527Z,0.00
2018-07-19T00:34:53.462Z,0.00
2018-07-19T00:35:53.592Z,0.00
2018-07-19T00:36:53.511Z,0.00
2018-07-19T00:37:53.506Z,0.00
2018-07-19T00:38:53.539Z,0.00
2018-07-19T00:39:53.550Z,0.00
2018-07-19T00:40:53.717Z,0.00
2018-07-19T00:41:53.584Z,0.00
2018-07-19T00:42:53.596Z,0.00
2018-07-19T00:43:53.620Z,0.00
2018-07-19T00:44:53.626Z,0.00
2018-07-19T00:45:53.743Z,0.00
2018-07-19T00:46:53.657Z,0.00
2018-07-19T00:47:53.671Z,0.00
2018-07-19T00:48:53.687Z,0.00
2018-07-19T00:49:53.702Z,0.00
2018-07-19T00:50:53.869Z,0.00
2018-07-19T00:51:53.731Z,0.00
2018-07-19T00:52:53.729Z,0.00
2018-07-19T00:53:53.760Z,0.00
2018-07-19T00:54:53.783Z,0.00
2018-07-19T00:55:53.896Z,0.00
2018-07-19T00:56:53.845Z,0.00
2018-07-19T00:57:53.825Z,0.00
2018-07-19T00:58:53.840Z,0.00
2018-07-19T00:59:53.855Z,0.00
2018-07-19T01:00:53.952Z,0.00
2018-07-19T01:01:53.877Z,0.00
2018-07-19T01:02:53.893Z,0.00
2018-07-19T01:03:53.921Z,0.00
2018-07-19T01:04:53.926Z,0.00
2018-07-19T01:05:54.068Z,0.00
2018-07-19T01:06:53.955Z,0.00
2018-07-19T01:07:53.972Z,0.00
2018-07-19T01:08:53.971Z,0.00
2018-07-19T01:09:53.999Z,0.00
2018-07-19T01:10:54.012Z,0.00
2018-07-19T01:11:54.125Z,0.00
2018-07-19T01:12:54.046Z,0.00
2018-07-19T01:13:54.066Z,0.00
2018-07-19T01:14:54.059Z,0.00
2018-07-19T01:15:54.086Z,0.00
2018-07-19T01:16:54.252Z,0.00
2018-07-19T01:17:54.125Z,0.00
2018-07-19T01:18:54.131Z,0.00
2018-07-19T01:19:54.150Z,0.00
2018-07-19T01:20:54.160Z,0.00
2018-07-19T01:21:54.280Z,0.00
2018-07-19T01:22:54.189Z,0.00
2018-07-19T01:23:54.200Z,0.00
2018-07-19T01:24:54.224Z,0.00
2018-07-19T01:25:54.237Z,0.00
2018-07-19T01:26:54.348Z,0.00
2018-07-19T01:27:54.266Z,0.00
2018-07-19T01:28:54.278Z,0.00
2018-07-19T01:29:54.292Z,0.00
2018-07-19T01:30:54.310Z,0.00
2018-07-19T01:31:54.470Z,0.00
2018-07-19T01:32:54.336Z,0.00
2018-07-19T01:33:54.346Z,0.00
2018-07-19T01:34:54.367Z,0.00
2018-07-19T01:35:54.377Z,0.00
2018-07-19T01:36:54.544Z,0.00
2018-07-19T01:37:54.410Z,0.00
2018-07-19T01:38:54.417Z,0.00
2018-07-19T01:39:54.439Z,0.00
2018-07-19T01:40:54.451Z,0.00
2018-07-19T01:41:54.568Z,0.00
2018-07-19T01:42:54.480Z,0.00
2018-07-19T01:43:54.496Z,0.00
2018-07-19T01:44:54.509Z,0.00
2018-07-19T01:45:54.526Z,0.00
2018-07-19T01:46:54.632Z,0.00
2018-07-19T01:47:54.549Z,0.00
2018-07-19T01:48:54.547Z,0.00
2018-07-19T01:49:54.583Z,0.00
2018-07-19T01:50:54.598Z,0.00
2018-07-19T01:51:54.711Z,0.00
2018-07-19T01:52:54.632Z,0.00
2018-07-19T01:53:54.637Z,0.00
2018-07-19T01:54:54.637Z,0.00
2018-07-19T01:55:54.648Z,0.00
2018-07-19T01:56:54.779Z,0.00
2018-07-19T01:57:54.694Z,0.00
2018-07-19T01:58:54.692Z,0.00
2018-07-19T01:59:54.734Z,0.00
2018-07-19T02:00:54.739Z,0.00
2018-07-19T02:01:54.901Z,0.00
2018-07-19T02:02:54.768Z,0.00
2018-07-19T02:03:54.785Z,0.00
2018-07-19T02:04:54.796Z,0.00
2018-07-19T02:05:54.790Z,0.00
2018-07-19T02:06:54.961Z,0.00
2018-07-19T02:07:54.846Z,0.00
2018-07-19T02:08:54.863Z,0.00
2018-07-19T02:09:54.869Z,0.00
2018-07-19T02:10:54.863Z,0.00
2018-07-19T02:11:55.024Z,0.00
2018-07-19T02:12:54.918Z,0.00
2018-07-19T02:13:54.928Z,0.00
2018-07-19T02:14:54.943Z,0.00
2018-07-19T02:15:54.931Z,0.00
2018-07-19T02:16:54.953Z,0.00
2018-07-19T02:17:55.135Z,0.00
2018-07-19T02:18:54.997Z,0.00
2018-07-19T02:19:55.014Z,0.00
2018-07-19T02:20:55.024Z,0.00
2018-07-19T02:21:55.043Z,0.00
2018-07-19T02:22:55.148Z,0.00
2018-07-19T02:23:55.068Z,0.00
2018-07-19T02:24:55.083Z,0.00
2018-07-19T02:25:55.099Z,0.00
2018-07-19T02:26:55.107Z,0.00
2018-07-19T02:27:55.277Z,0.00
2018-07-19T02:28:55.143Z,0.00
2018-07-19T02:29:55.139Z,0.00
2018-07-19T02:30:55.175Z,0.00
2018-07-19T02:31:55.186Z,0.00
2018-07-19T02:32:55.351Z,0.00
2018-07-19T02:33:55.206Z,0.00
2018-07-19T02:34:55.224Z,0.00
2018-07-19T02:35:55.219Z,0.00
2018-07-19T02:36:55.251Z,0.00
2018-07-19T02:38:55.285Z,0.00
2018-07-19T02:39:55.292Z,0.00
2018-07-19T02:40:55.313Z,0.00
2018-07-19T02:41:55.305Z,0.00
2018-07-19T02:42:55.471Z,0.00
2018-07-19T02:43:55.426Z,0.00
2018-07-19T02:44:55.366Z,0.00
2018-07-19T02:45:55.375Z,0.00
2018-07-19T02:46:55.390Z,0.00
2018-07-19T02:47:55.505Z,0.00
2018-07-19T02:48:55.418Z,0.00
2018-07-19T02:49:55.438Z,0.00
2018-07-19T02:50:55.444Z,0.00
2018-07-19T02:51:55.450Z,0.00
2018-07-19T02:52:55.558Z,0.00
2018-07-19T02:53:55.493Z,0.00
2018-07-19T02:54:55.510Z,0.00
2018-07-19T02:55:55.518Z,0.00
2018-07-19T02:56:55.536Z,0.00
2018-07-19T02:57:55.646Z,0.00
2018-07-19T02:58:55.568Z,0.00
2018-07-19T02:59:55.575Z,0.00
2018-07-19T03:00:55.590Z,0.00
2018-07-19T03:01:55.600Z,0.00
2018-07-19T03:02:55.718Z,0.00
2018-07-19T03:03:55.627Z,0.00
2018-07-19T03:04:55.645Z,0.00
2018-07-19T03:05:55.657Z,0.00
2018-07-19T03:06:55.669Z,0.00
2018-07-19T03:07:55.764Z,0.00
2018-07-19T03:08:55.681Z,0.00
2018-07-19T03:09:55.710Z,0.00
2018-07-19T03:10:55.706Z,0.00
2018-07-19T03:11:55.740Z,0.00
2018-07-19T03:12:55.883Z,0.00
2018-07-19T03:13:55.764Z,0.00
2018-07-19T03:14:55.776Z,0.00
2018-07-19T03:15:55.800Z,0.00
2018-07-19T03:16:55.790Z,0.00
2018-07-19T03:17:55.971Z,0.00
2018-07-19T03:18:55.835Z,0.00
2018-07-19T03:19:55.852Z,0.00
2018-07-19T03:20:55.864Z,0.00
2018-07-19T03:21:55.877Z,0.00
2018-07-19T03:22:55.990Z,0.00
2018-07-19T03:23:55.900Z,0.00
2018-07-19T03:24:55.938Z,0.00
2018-07-19T03:25:55.936Z,0.00
2018-07-19T03:26:55.949Z,0.00
2018-07-19T03:27:56.104Z,0.00
2018-07-19T03:28:55.970Z,0.00
2018-07-19T03:29:55.984Z,0.00
2018-07-19T03:30:56.071Z,0.00
2018-07-19T03:31:56.020Z,0.00
2018-07-19T03:32:56.021Z,0.00
2018-07-19T03:33:56.189Z,0.00
2018-07-19T03:34:56.054Z,0.00
2018-07-19T03:35:56.064Z,0.00
2018-07-19T03:36:56.085Z,0.00
2018-07-19T03:37:56.098Z,0.00
2018-07-19T03:38:56.211Z,0.00
2018-07-19T03:39:56.131Z,0.00
2018-07-19T03:40:56.135Z,0.00
2018-07-19T03:41:56.151Z,0.00
2018-07-19T03:42:56.163Z,0.00
2018-07-19T03:43:56.276Z,0.00
2018-07-19T03:44:56.186Z,0.00
2018-07-19T03:45:56.204Z,0.00
2018-07-19T03:46:56.199Z,0.00
2018-07-19T03:47:56.227Z,0.00
2018-07-19T03:48:56.340Z,0.00
2018-07-19T03:49:56.258Z,0.00
2018-07-19T03:50:56.274Z,0.00
2018-07-19T03:51:56.283Z,0.00
2018-07-19T03:52:56.298Z,0.00
2018-07-19T03:53:56.414Z,0.00
2018-07-19T03:54:56.327Z,0.00
2018-07-19T03:55:56.337Z,0.00
2018-07-19T03:56:56.361Z,0.00
2018-07-19T03:57:56.365Z,0.00
2018-07-19T03:58:56.474Z,0.00
2018-07-19T03:59:56.373Z,0.00
2018-07-19T04:00:56.408Z,0.00
2018-07-19T04:01:56.456Z,0.00
2018-07-19T04:02:56.431Z,0.00
2018-07-19T04:03:56.544Z,0.00
2018-07-19T04:04:56.456Z,0.00
2018-07-19T04:05:56.467Z,0.00
2018-07-19T04:06:56.485Z,0.00
2018-07-19T04:07:56.478Z,0.00
2018-07-19T04:08:56.608Z,0.00
2018-07-19T04:09:56.531Z,0.00
2018-07-19T04:10:56.526Z,0.00
2018-07-19T04:11:56.552Z,0.00
2018-07-19T04:12:56.587Z,0.00
2018-07-19T04:13:56.678Z,0.00
2018-07-19T04:14:56.588Z,0.00
2018-07-19T04:15:56.590Z,0.00
2018-07-19T04:16:56.625Z,0.00
2018-07-19T04:17:56.636Z,0.00
2018-07-19T04:18:56.728Z,0.00
2018-07-19T04:19:56.661Z,0.00
2018-07-19T04:20:56.677Z,0.00
2018-07-19T04:21:56.689Z,0.00
2018-07-19T04:22:56.698Z,0.00
2018-07-19T04:23:56.821Z,0.00
2018-07-19T04:24:56.727Z,0.00
2018-07-19T04:25:56.743Z,0.00
2018-07-19T04:26:56.754Z,0.00
2018-07-19T04:27:56.762Z,0.00
2018-07-19T04:28:56.881Z,0.00
2018-07-19T04:29:56.792Z,0.00
2018-07-19T04:30:56.801Z,0.00
2018-07-19T04:31:56.814Z,0.00
2018-07-19T04:32:56.832Z,0.00
2018-07-19T04:33:56.945Z,0.00
2018-07-19T04:34:56.851Z,0.00
2018-07-19T04:35:56.866Z,0.00
2018-07-19T04:36:56.875Z,0.00
2018-07-19T04:37:56.898Z,0.00
2018-07-19T04:38:56.984Z,0.00
2018-07-19T04:39:56.919Z,0.00
2018-07-19T04:40:56.932Z,0.00
2018-07-19T04:41:56.944Z,0.00
2018-07-19T04:42:56.961Z,0.00
2018-07-19T04:43:56.966Z,0.00
2018-07-19T04:44:57.114Z,0.00
2018-07-19T04:45:57.000Z,0.00
2018-07-19T04:46:57.000Z,0.00
2018-07-19T04:47:57.027Z,0.00
2018-07-19T04:48:57.039Z,0.00
2018-07-19T04:49:57.154Z,0.00
2018-07-19T04:50:57.061Z,0.00
2018-07-19T04:51:57.056Z,0.00
2018-07-19T04:52:57.092Z,0.00
2018-07-19T04:53:57.104Z,0.00
2018-07-19T04:54:57.260Z,0.00
2018-07-19T04:55:57.111Z,0.00
2018-07-19T04:56:57.146Z,0.00
2018-07-19T04:57:57.137Z,0.00
2018-07-19T04:58:57.162Z,0.00
2018-07-19T04:59:57.281Z,0.00
2018-07-19T05:00:57.193Z,0.00
2018-07-19T05:01:57.203Z,0.00
2018-07-19T05:02:57.200Z,0.00
2018-07-19T05:03:57.229Z,0.00
2018-07-19T05:04:57.345Z,0.00
2018-07-19T05:05:57.255Z,0.00
2018-07-19T05:06:57.278Z,0.00
2018-07-19T05:07:57.280Z,0.00
2018-07-19T05:08:57.295Z,0.00
2018-07-19T05:09:57.402Z,0.00
2018-07-19T05:10:57.327Z,0.00
2018-07-19T05:11:57.312Z,0.00
2018-07-19T05:12:57.347Z,0.00
2018-07-19T05:13:57.377Z,0.00
2018-07-19T05:14:57.472Z,0.00
2018-07-19T05:15:57.385Z,0.00
2018-07-19T05:16:57.404Z,0.00
2018-07-19T05:17:57.410Z,0.00
2018-07-19T05:18:57.450Z,0.00
2018-07-19T05:19:57.535Z,0.00
2018-07-19T05:20:57.446Z,0.00
2018-07-19T05:21:57.461Z,0.00
2018-07-19T05:22:57.473Z,0.00
2018-07-19T05:23:57.486Z,0.00
2018-07-19T05:24:57.599Z,0.00
2018-07-19T05:25:57.508Z,0.00
2018-07-19T05:26:57.532Z,0.00
2018-07-19T05:27:57.550Z,0.00
2018-07-19T05:28:57.550Z,0.00
2018-07-19T05:29:57.664Z,0.00
2018-07-19T05:30:57.576Z,0.00
2018-07-19T05:31:57.593Z,0.00
2018-07-19T05:32:57.602Z,0.00
2018-07-19T05:33:57.610Z,0.00
2018-07-19T05:34:57.711Z,0.00
2018-07-19T05:35:57.624Z,0.00
2018-07-19T05:36:57.650Z,0.00
2018-07-19T05:37:57.660Z,0.00
2018-07-19T05:38:57.687Z,0.00
2018-07-19T05:39:57.840Z,0.00
2018-07-19T05:40:57.704Z,0.00
2018-07-19T05:41:57.770Z,0.00
2018-07-19T05:42:57.729Z,0.00
2018-07-19T05:43:57.745Z,0.00
2018-07-19T05:44:57.855Z,0.00
2018-07-19T05:45:57.766Z,0.00
2018-07-19T05:46:57.786Z,0.00
2018-07-19T05:47:57.792Z,0.00
2018-07-19T05:48:57.786Z,0.00
2018-07-19T05:49:57.918Z,0.00
2018-07-19T05:50:57.832Z,0.00
2018-07-19T05:51:57.843Z,0.00
2018-07-19T05:52:57.856Z,0.00
2018-07-19T05:53:57.865Z,0.00
2018-07-19T05:54:58.013Z,0.00
2018-07-19T05:55:57.898Z,0.00
2018-07-19T05:56:57.889Z,0.00
2018-07-19T05:57:57.909Z,0.00
2018-07-19T05:58:57.933Z,0.00
2018-07-19T05:59:57.928Z,0.00
2018-07-19T06:00:58.055Z,0.00
2018-07-19T06:01:57.975Z,0.00
2018-07-19T06:02:57.968Z,0.00
2018-07-19T06:03:57.997Z,0.00
2018-07-19T06:04:58.012Z,0.00
2018-07-19T06:05:58.175Z,0.00
2018-07-19T06:06:58.034Z,0.00
2018-07-19T06:07:58.032Z,0.00
2018-07-19T06:08:58.060Z,0.00
2018-07-19T06:09:58.076Z,0.00
2018-07-19T06:10:58.182Z,0.00
2018-07-19T06:11:58.097Z,0.00
2018-07-19T06:12:58.097Z,0.00
2018-07-19T06:13:58.124Z,0.00
2018-07-19T06:14:58.115Z,0.00
2018-07-19T06:15:58.346Z,0.00
2018-07-19T06:16:58.160Z,0.00
2018-07-19T06:17:58.199Z,0.00
2018-07-19T06:18:58.191Z,0.00
2018-07-19T06:19:58.204Z,0.00
2018-07-19T06:20:58.342Z,0.00
2018-07-19T06:21:58.207Z,0.00
2018-07-19T06:22:58.245Z,0.00
2018-07-19T06:23:58.251Z,0.00
2018-07-19T06:24:58.267Z,0.00
2018-07-19T06:25:58.373Z,0.00
2018-07-19T06:26:58.284Z,0.00
2018-07-19T06:27:58.300Z,0.00
2018-07-19T06:28:58.318Z,0.00
2018-07-19T06:29:58.330Z,0.00
2018-07-19T06:30:58.435Z,0.00
2018-07-19T06:31:58.339Z,0.00
2018-07-19T06:32:58.351Z,0.00
2018-07-19T06:33:58.383Z,0.00
2018-07-19T06:34:58.391Z,0.00
2018-07-19T06:35:58.499Z,0.00
2018-07-19T06:36:58.421Z,0.00
2018-07-19T06:37:58.429Z,0.00
2018-07-19T06:38:58.447Z,0.00
2018-07-19T06:39:58.455Z,0.00
2018-07-19T06:40:58.564Z,0.00
2018-07-19T06:41:58.529Z,0.00
2018-07-19T06:42:58.551Z,0.00
2018-07-19T06:43:58.553Z,0.00
2018-07-19T06:44:58.570Z,0.00
2018-07-19T06:45:58.734Z,0.00
2018-07-19T06:46:58.596Z,0.00
2018-07-19T06:47:58.610Z,0.00
2018-07-19T06:48:58.623Z,0.00
2018-07-19T06:49:58.634Z,0.00
2018-07-19T06:50:58.749Z,0.00
2018-07-19T06:51:58.659Z,0.00
2018-07-19T06:52:58.616Z,0.00
2018-07-19T06:53:58.635Z,0.00
2018-07-19T06:54:58.647Z,0.00
2018-07-19T06:55:58.803Z,0.00
2018-07-19T06:56:58.666Z,0.00
2018-07-19T06:57:58.680Z,0.00
2018-07-19T06:58:58.695Z,0.00
2018-07-19T06:59:58.689Z,0.00
2018-07-19T07:00:58.875Z,0.00
2018-07-19T07:01:58.723Z,0.00
2018-07-19T07:02:58.743Z,0.00
2018-07-19T07:03:58.738Z,0.00
2018-07-19T07:04:58.769Z,0.00
2018-07-19T07:05:58.873Z,0.00
2018-07-19T07:06:58.791Z,0.00
2018-07-19T07:07:58.805Z,0.00
2018-07-19T07:08:58.854Z,0.00
2018-07-19T07:09:58.824Z,0.00
2018-07-19T07:10:58.974Z,0.00
2018-07-19T07:11:58.858Z,0.00
2018-07-19T07:12:58.863Z,0.00
2018-07-19T07:13:58.881Z,0.00
2018-07-19T07:14:58.935Z,0.00
2018-07-19T07:15:58.901Z,0.00
2018-07-19T07:16:59.012Z,0.00
2018-07-19T07:17:58.909Z,0.00
2018-07-19T07:18:58.937Z,0.00
2018-07-19T07:19:58.952Z,0.00
2018-07-19T07:20:58.965Z,0.00
2018-07-19T07:21:59.074Z,0.00
2018-07-19T07:22:58.970Z,0.00
2018-07-19T07:23:59.002Z,0.00
2018-07-19T07:24:59.010Z,0.00
2018-07-19T07:25:59.028Z,0.00
2018-07-19T07:26:59.169Z,0.00
2018-07-19T07:27:59.052Z,0.00
2018-07-19T07:28:59.045Z,0.00
2018-07-19T07:29:59.073Z,0.00
2018-07-19T07:30:59.081Z,0.00
2018-07-19T07:31:59.197Z,0.00
2018-07-19T07:32:59.115Z,0.00
2018-07-19T07:33:59.155Z,0.00
2018-07-19T07:34:59.124Z,0.00
2018-07-19T07:35:59.142Z,0.00
2018-07-19T07:36:59.257Z,0.00
2018-07-19T07:37:59.174Z,0.00
2018-07-19T07:38:59.281Z,0.00
2018-07-19T07:39:59.190Z,0.00
2018-07-19T07:40:59.207Z,0.00
2018-07-19T07:41:59.223Z,0.00
2018-07-19T07:43:59.245Z,0.00
2018-07-19T07:44:59.235Z,0.00
2018-07-19T07:45:59.269Z,0.00
2018-07-19T07:46:59.359Z,0.00
2018-07-19T07:47:59.301Z,0.00
2018-07-19T07:48:59.303Z,0.00
2018-07-19T07:49:59.314Z,0.00
2018-07-19T07:50:59.320Z,0.00
2018-07-19T07:51:59.448Z,0.00
2018-07-19T07:52:59.358Z,0.00
2018-07-19T07:53:59.364Z,0.00
2018-07-19T07:54:59.386Z,0.00
2018-07-19T07:55:59.372Z,0.00
2018-07-19T07:56:59.497Z,0.00
2018-07-19T07:57:59.403Z,0.00
2018-07-19T07:58:59.426Z,0.00
2018-07-19T07:59:59.437Z,0.00
2018-07-19T08:00:59.430Z,0.00
2018-07-19T08:01:59.458Z,0.00
2018-07-19T08:02:59.474Z,0.00
2018-07-19T08:03:59.490Z,0.00
2018-07-19T08:04:59.486Z,0.00
2018-07-19T08:05:59.495Z,0.00
2018-07-19T08:06:59.606Z,0.00
2018-07-19T08:07:59.539Z,0.00
2018-07-19T08:08:59.609Z,0.00
2018-07-19T08:09:59.568Z,0.00
2018-07-19T08:10:59.570Z,0.00
2018-07-19T08:11:59.678Z,0.00
2018-07-19T08:12:59.596Z,0.00
2018-07-19T08:13:59.612Z,0.00
2018-07-19T08:14:59.619Z,0.00
2018-07-19T08:15:59.635Z,0.00
2018-07-19T08:16:59.789Z,0.00
2018-07-19T08:17:59.654Z,0.00
2018-07-19T08:18:59.664Z,0.00
2018-07-19T08:19:59.674Z,0.00
2018-07-19T08:20:59.693Z,0.00
2018-07-19T08:21:59.801Z,0.00
2018-07-19T08:22:59.699Z,0.00
2018-07-19T08:23:59.725Z,0.00
2018-07-19T08:24:59.740Z,0.00
2018-07-19T08:25:59.746Z,0.00
2018-07-19T08:26:59.859Z,0.00
2018-07-19T08:27:59.781Z,0.00
2018-07-19T08:28:59.832Z,0.00
2018-07-19T08:29:59.801Z,0.00
2018-07-19T08:30:59.809Z,0.00
2018-07-19T08:31:59.929Z,0.00
2018-07-19T08:32:59.811Z,0.00
2018-07-19T08:33:59.854Z,0.00
2018-07-19T08:34:59.859Z,0.00
2018-07-19T08:35:59.910Z,0.00
2018-07-19T08:36:59.984Z,0.00
2018-07-19T08:37:59.888Z,0.00
2018-07-19T08:38:59.884Z,0.00
2018-07-19T08:39:59.915Z,0.00
2018-07-19T08:40:59.929Z,0.00
2018-07-19T08:41:59.945Z,0.00
2018-07-19T08:43:00.107Z,0.00
2018-07-19T08:43:59.966Z,0.00
2018-07-19T08:44:59.983Z,0.00
2018-07-19T08:45:59.989Z,0.00
2018-07-19T08:47:00.000Z,0.00
2018-07-19T08:48:00.101Z,0.00
2018-07-19T08:49:00.062Z,0.00
2018-07-19T08:50:00.041Z,0.00
2018-07-19T08:51:00.046Z,0.00
2018-07-19T08:52:00.059Z,0.00
2018-07-19T08:53:00.169Z,0.00
2018-07-19T08:54:00.082Z,0.00
2018-07-19T08:55:00.079Z,0.00
2018-07-19T08:56:01.415Z,0.00
2018-07-19T08:57:00.118Z,0.00
2018-07-19T08:58:00.279Z,0.00
2018-07-19T08:59:00.139Z,0.00
2018-07-19T09:00:00.157Z,0.00
2018-07-19T09:01:00.165Z,0.00
2018-07-19T09:02:00.162Z,0.00
2018-07-19T09:03:00.289Z,0.00
2018-07-19T09:04:00.207Z,0.00
2018-07-19T09:05:00.212Z,0.00
2018-07-19T09:06:00.203Z,0.00
2018-07-19T09:07:00.235Z,0.00
2018-07-19T09:08:00.349Z,0.00
2018-07-19T09:09:00.262Z,0.00
2018-07-19T09:10:00.275Z,0.00
2018-07-19T09:11:00.284Z,0.00
2018-07-19T09:12:00.296Z,0.00
2018-07-19T09:13:00.434Z,0.00
2018-07-19T09:14:00.356Z,0.00
2018-07-19T09:15:00.308Z,0.00
2018-07-19T09:16:00.346Z,0.00
2018-07-19T09:17:00.334Z,0.00
2018-07-19T09:18:00.463Z,0.00
2018-07-19T09:19:00.376Z,0.00
2018-07-19T09:20:00.392Z,0.00
2018-07-19T09:21:00.397Z,0.00
2018-07-19T09:22:00.407Z,0.00
2018-07-19T09:23:00.528Z,0.00
2018-07-19T09:24:00.436Z,0.00
2018-07-19T09:25:00.426Z,0.00
2018-07-19T09:26:00.466Z,0.00
2018-07-19T09:27:00.472Z,0.00
2018-07-19T09:28:00.581Z,0.00
2018-07-19T09:29:00.494Z,0.00
2018-07-19T09:30:00.508Z,0.00
2018-07-19T09:31:00.504Z,0.00
2018-07-19T09:32:00.529Z,0.00
2018-07-19T09:33:00.691Z,0.00
2018-07-19T09:34:00.542Z,0.00
2018-07-19T09:35:00.578Z,0.00
2018-07-19T09:36:00.576Z,0.00
2018-07-19T09:37:00.574Z,0.00
2018-07-19T09:38:00.700Z,0.00
2018-07-19T09:39:00.609Z,0.00
2018-07-19T09:40:00.623Z,0.00
2018-07-19T09:41:00.618Z,0.00
2018-07-19T09:42:00.657Z,0.00
2018-07-19T09:43:00.809Z,5.63
2018-07-19T09:44:00.649Z,5.63
2018-07-19T09:45:00.689Z,5.63
2018-07-19T09:46:00.695Z,5.63
2018-07-19T09:47:00.691Z,5.63
2018-07-19T09:48:00.826Z,5.63
2018-07-19T09:49:00.727Z,11.25
2018-07-19T09:50:00.724Z,11.25
2018-07-19T09:51:00.763Z,11.25
2018-07-19T09:52:00.762Z,11.25
2018-07-19T09:53:00.878Z,16.88
2018-07-19T09:54:00.788Z,16.88
2018-07-19T09:55:00.783Z,16.88
2018-07-19T09:56:00.813Z,16.88
2018-07-19T09:57:01.068Z,22.50
2018-07-19T09:58:00.940Z,22.50
2018-07-19T09:59:00.844Z,22.50
2018-07-19T10:00:00.842Z,28.13
2018-07-19T10:01:00.873Z,28.13
2018-07-19T10:02:00.880Z,28.13
2018-07-19T10:03:00.895Z,33.75
2018-07-19T10:04:01.005Z,33.75
2018-07-19T10:05:00.927Z,33.75
2018-07-19T10:06:00.937Z,39.38
2018-07-19T10:07:00.944Z,39.38
2018-07-19T10:08:00.957Z,45.00
2018-07-19T10:09:01.065Z,45.00
2018-07-19T10:10:01.007Z,50.63
2018-07-19T10:11:00.984Z,50.63
2018-07-19T10:12:01.019Z,56.25
2018-07-19T10:13:01.016Z,56.25
2018-07-19T10:14:01.178Z,56.25
2018-07-19T10:15:01.036Z,61.88
2018-07-19T10:16:01.047Z,61.88
2018-07-19T10:17:01.059Z,67.50
2018-07-19T10:18:01.074Z,67.50
2018-07-19T10:19:01.187Z,73.13
2018-07-19T10:20:01.098Z,73.13
2018-07-19T10:21:01.104Z,73.13
2018-07-19T10:22:01.122Z,73.13
2018-07-19T10:23:01.139Z,78.75
2018-07-19T10:24:01.279Z,84.38
2018-07-19T10:25:01.162Z,90.00
2018-07-19T10:26:01.168Z,90.00
2018-07-19T10:27:01.183Z,95.63
2018-07-19T10:28:01.190Z,101.25
2018-07-19T10:29:01.307Z,106.88
2018-07-19T10:30:01.213Z,112.50
2018-07-19T10:31:01.230Z,118.13
2018-07-19T10:32:01.259Z,112.50
2018-07-19T10:33:01.260Z,118.13
2018-07-19T10:34:01.396Z,118.13
2018-07-19T10:35:01.280Z,123.75
2018-07-19T10:36:01.273Z,129.38
2018-07-19T10:37:01.301Z,129.38
2018-07-19T10:38:01.312Z,129.38
2018-07-19T10:39:01.426Z,129.38
2018-07-19T10:40:01.346Z,135.00
2018-07-19T10:41:01.328Z,140.63
2018-07-19T10:42:01.361Z,140.63
2018-07-19T10:43:01.405Z,146.25
2018-07-19T10:44:01.545Z,157.50
2018-07-19T10:45:01.379Z,168.75
2018-07-19T10:46:01.438Z,180.00
2018-07-19T10:47:01.427Z,208.13
2018-07-19T10:48:01.439Z,230.63
2018-07-19T10:49:01.555Z,247.50
2018-07-19T10:50:01.468Z,253.13
2018-07-19T10:51:01.458Z,264.38
2018-07-19T10:52:01.543Z,275.63
2018-07-19T10:53:01.498Z,275.63
2018-07-19T10:54:01.647Z,275.63
2018-07-19T10:55:01.528Z,275.63
2018-07-19T10:56:01.538Z,281.25
2018-07-19T10:57:01.556Z,281.25
2018-07-19T10:58:01.582Z,286.88
2018-07-19T10:59:01.732Z,286.88
2018-07-19T11:00:01.600Z,292.50
2018-07-19T11:01:01.611Z,292.50
2018-07-19T11:02:01.627Z,303.75
2018-07-19T11:03:01.641Z,303.75
2018-07-19T11:04:01.799Z,303.75
2018-07-19T11:05:01.667Z,303.75
2018-07-19T11:06:01.683Z,303.75
2018-07-19T11:07:01.671Z,309.38
2018-07-19T11:08:01.709Z,315.00
2018-07-19T11:09:01.833Z,315.00
2018-07-19T11:10:01.741Z,315.00
2018-07-19T11:11:01.752Z,320.63
2018-07-19T11:12:01.769Z,320.63
2018-07-19T11:13:01.785Z,326.25
2018-07-19T11:14:01.893Z,331.88
2018-07-19T11:15:01.817Z,331.88
2018-07-19T11:16:01.822Z,337.50
2018-07-19T11:17:01.842Z,348.75
2018-07-19T11:18:01.857Z,348.75
2018-07-19T11:19:01.873Z,348.75
2018-07-19T11:20:01.985Z,348.75
2018-07-19T11:21:01.900Z,360.00
2018-07-19T11:22:01.916Z,365.63
2018-07-19T11:23:01.937Z,371.25
2018-07-19T11:24:01.941Z,371.25
2018-07-19T11:25:02.115Z,376.88
2018-07-19T11:26:01.975Z,382.50
2018-07-19T11:27:01.969Z,388.13
2018-07-19T11:28:02.006Z,393.75
2018-07-19T11:29:02.004Z,399.38
2018-07-19T11:30:02.140Z,405.00
2018-07-19T11:31:02.052Z,410.63
2018-07-19T11:32:02.070Z,416.25
2018-07-19T11:33:02.085Z,421.88
2018-07-19T11:34:02.089Z,427.50
2018-07-19T11:35:02.219Z,427.50
2018-07-19T11:36:02.111Z,433.13
2018-07-19T11:37:02.128Z,438.75
2018-07-19T11:38:02.165Z,450.00
2018-07-19T11:39:02.162Z,461.25
2018-07-19T11:40:02.346Z,472.50
2018-07-19T11:41:02.209Z,478.13
2018-07-19T11:42:02.232Z,478.13
2018-07-19T11:43:02.248Z,483.75
2018-07-19T11:44:02.276Z,489.38
2018-07-19T11:45:02.428Z,495.00
2018-07-19T11:46:02.301Z,500.63
2018-07-19T11:47:02.293Z,506.25
2018-07-19T11:48:02.322Z,506.25
2018-07-19T11:49:02.344Z,511.88
2018-07-19T11:50:02.462Z,517.50
2018-07-19T11:51:02.381Z,523.13
2018-07-19T11:52:02.395Z,528.75
2018-07-19T11:53:02.399Z,528.75
2018-07-19T11:54:02.432Z,540.00
2018-07-19T11:55:02.448Z,545.63
2018-07-19T11:56:02.466Z,551.25
2018-07-19T11:57:02.478Z,556.88
2018-07-19T11:58:02.498Z,562.50
2018-07-19T11:59:02.507Z,579.38
2018-07-19T12:00:02.629Z,585.00
2018-07-19T12:01:02.534Z,590.63
2018-07-19T12:02:02.554Z,590.63
2018-07-19T12:03:02.592Z,596.25
2018-07-19T12:04:02.608Z,607.50
2018-07-19T12:05:02.728Z,613.13
2018-07-19T12:06:02.639Z,618.75
2018-07-19T12:07:02.644Z,624.38
2018-07-19T12:08:02.683Z,630.00
2018-07-19T12:09:02.698Z,641.25
2018-07-19T12:10:02.868Z,641.25
2018-07-19T12:11:02.728Z,652.50
2018-07-19T12:12:02.748Z,652.50
2018-07-19T12:13:02.771Z,658.13
2018-07-19T12:14:02.790Z,658.13
2018-07-19T12:15:02.908Z,663.75
2018-07-19T12:16:02.825Z,680.63
2018-07-19T12:17:02.848Z,680.63
2018-07-19T12:18:02.932Z,680.63
2018-07-19T12:19:02.884Z,686.25
2018-07-19T12:20:03.007Z,686.25
2018-07-19T12:21:02.896Z,697.50
2018-07-19T12:22:02.937Z,697.50
2018-07-19T12:23:02.964Z,697.50
2018-07-19T12:24:02.973Z,708.75
2018-07-19T12:25:03.100Z,708.75
2018-07-19T12:26:03.017Z,708.75
2018-07-19T12:27:03.034Z,714.38
2018-07-19T12:28:03.050Z,720.00
2018-07-19T12:29:03.074Z,720.00
2018-07-19T12:30:03.198Z,731.25
2018-07-19T12:31:03.110Z,725.63
2018-07-19T12:32:03.134Z,731.25
2018-07-19T12:33:03.151Z,731.25
2018-07-19T12:34:03.173Z,753.75
2018-07-19T12:35:03.340Z,759.38
2018-07-19T12:36:03.189Z,759.38
2018-07-19T12:37:03.230Z,748.13
2018-07-19T12:38:03.251Z,759.38
2018-07-19T12:39:03.251Z,776.25
2018-07-19T12:40:03.445Z,781.88
2018-07-19T12:41:03.307Z,787.50
2018-07-19T12:42:03.313Z,787.50
2018-07-19T12:43:03.333Z,810.00
2018-07-19T12:44:03.370Z,815.63
2018-07-19T12:45:03.546Z,826.88
2018-07-19T12:46:03.395Z,826.88
2018-07-19T12:47:03.440Z,843.75
2018-07-19T12:48:03.454Z,855.00
2018-07-19T12:49:03.480Z,860.63
2018-07-19T12:50:03.646Z,871.88
2018-07-19T12:51:03.517Z,877.50
2018-07-19T12:52:03.555Z,888.75
2018-07-19T12:53:03.564Z,900.00
2018-07-19T12:54:03.583Z,916.88
2018-07-19T12:55:03.704Z,933.75
2018-07-19T12:56:03.623Z,984.38
2018-07-19T12:57:03.666Z,1006.88
2018-07-19T12:58:03.660Z,1012.50
2018-07-19T12:59:03.687Z,1023.75
2018-07-19T13:00:03.812Z,1141.88
2018-07-19T13:01:03.756Z,1293.75
2018-07-19T13:02:03.750Z,1271.25
2018-07-19T13:03:03.769Z,1423.13
2018-07-19T13:04:03.785Z,1451.25
2018-07-19T13:05:03.966Z,1366.88
2018-07-19T13:06:03.839Z,1293.75
2018-07-19T13:07:03.854Z,1293.75
2018-07-19T13:08:03.873Z,1276.88